sensor_id;sensor_type;location;lat;lon;timestamp;temperature;humidity
27544;DHT22;17996;51.056;3.656;2022-07-04T00:00:54;16.80;99.90
27544;DHT22;17996;51.056;3.656;2022-07-04T00:03:19;16.80;99.90
27544;DHT22;17996;51.056;3.656;2022-07-04T00:05:45;16.80;99.90
27544;DHT22;17996;51.056;3.656;2022-07-04T00:08:11;16.70;99.90
27544;DHT22;17996;51.056;3.656;2022-07-04T00:10:37;16.70;99.90
27544;DHT22;17996;51.056;3.656;2022-07-04T00:13:03;16.70;99.90
27544;DHT22;17996;51.056;3.656;2022-07-04T00:15:29;16.70;99.90
27544;DHT22;17996;51.056;3.656;2022-07-04T00:17:54;16.60;99.90
27544;DHT22;17996;51.056;3.656;2022-07-04T00:20:20;16.60;99.90
27544;DHT22;17996;51.056;3.656;2022-07-04T00:22:46;16.60;99.90
27544;DHT22;17996;51.056;3.656;2022-07-04T00:25:12;16.60;99.90
27544;DHT22;17996;51.056;3.656;2022-07-04T00:27:37;16.50;99.90
27544;DHT22;17996;51.056;3.656;2022-07-04T00:30:04;16.50;99.90
27544;DHT22;17996;51.056;3.656;2022-07-04T00:32:30;16.50;99.90
27544;DHT22;17996;51.056;3.656;2022-07-04T00:34:56;16.40;99.90
27544;DHT22;17996;51.056;3.656;2022-07-04T00:37:21;16.40;99.90
27544;DHT22;17996;51.056;3.656;2022-07-04T00:39:47;16.40;99.90
27544;DHT22;17996;51.056;3.656;2022-07-04T00:42:13;16.40;99.90
27544;DHT22;17996;51.056;3.656;2022-07-04T00:44:39;16.40;99.90
27544;DHT22;17996;51.056;3.656;2022-07-04T00:47:05;16.30;99.90
27544;DHT22;17996;51.056;3.656;2022-07-04T00:49:31;16.30;99.90
27544;DHT22;17996;51.056;3.656;2022-07-04T00:51:57;16.30;99.90
27544;DHT22;17996;51.056;3.656;2022-07-04T00:54:26;16.20;99.90
27544;DHT22;17996;51.056;3.656;2022-07-04T00:56:52;16.20;99.90
27544;DHT22;17996;51.056;3.656;2022-07-04T00:59:19;16.20;99.90
27544;DHT22;17996;51.056;3.656;2022-07-04T01:01:45;16.20;99.90
27544;DHT22;17996;51.056;3.656;2022-07-04T01:04:11;16.20;99.90
27544;DHT22;17996;51.056;3.656;2022-07-04T01:06:37;16.10;99.90
27544;DHT22;17996;51.056;3.656;2022-07-04T01:09:04;16.10;99.90
27544;DHT22;17996;51.056;3.656;2022-07-04T01:11:30;16.10;99.90
27544;DHT22;17996;51.056;3.656;2022-07-04T01:13:56;16.20;99.90
27544;DHT22;17996;51.056;3.656;2022-07-04T01:16:24;16.10;99.90
27544;DHT22;17996;51.056;3.656;2022-07-04T01:18:50;16.10;99.90
27544;DHT22;17996;51.056;3.656;2022-07-04T01:21:18;16.00;99.90
27544;DHT22;17996;51.056;3.656;2022-07-04T01:23:44;16.00;99.90
27544;DHT22;17996;51.056;3.656;2022-07-04T01:26:09;16.00;99.90
27544;DHT22;17996;51.056;3.656;2022-07-04T01:28:36;16.00;99.90
27544;DHT22;17996;51.056;3.656;2022-07-04T01:31:02;15.90;99.90
27544;DHT22;17996;51.056;3.656;2022-07-04T01:33:28;15.90;99.90
27544;DHT22;17996;51.056;3.656;2022-07-04T01:35:54;15.90;99.90
27544;DHT22;17996;51.056;3.656;2022-07-04T01:38:20;15.90;99.90
27544;DHT22;17996;51.056;3.656;2022-07-04T01:40:46;15.80;99.90
27544;DHT22;17996;51.056;3.656;2022-07-04T01:43:12;15.80;99.90
27544;DHT22;17996;51.056;3.656;2022-07-04T01:45:37;15.80;99.90
27544;DHT22;17996;51.056;3.656;2022-07-04T01:48:13;15.80;99.90
27544;DHT22;17996;51.056;3.656;2022-07-04T01:50:39;15.80;99.90
27544;DHT22;17996;51.056;3.656;2022-07-04T01:53:05;15.70;99.90
27544;DHT22;17996;51.056;3.656;2022-07-04T01:55:31;15.80;99.90
27544;DHT22;17996;51.056;3.656;2022-07-04T01:57:57;15.70;99.90
27544;DHT22;17996;51.056;3.656;2022-07-04T02:00:25;15.80;99.90
27544;DHT22;17996;51.056;3.656;2022-07-04T02:03:09;15.70;99.90
27544;DHT22;17996;51.056;3.656;2022-07-04T02:05:35;15.70;99.90
27544;DHT22;17996;51.056;3.656;2022-07-04T02:08:03;15.70;99.90
27544;DHT22;17996;51.056;3.656;2022-07-04T02:10:29;15.60;99.90
27544;DHT22;17996;51.056;3.656;2022-07-04T02:12:55;15.80;99.90
27544;DHT22;17996;51.056;3.656;2022-07-04T02:15:39;15.60;99.90
27544;DHT22;17996;51.056;3.656;2022-07-04T02:18:08;15.60;99.90
27544;DHT22;17996;51.056;3.656;2022-07-04T02:20:35;15.60;99.90
27544;DHT22;17996;51.056;3.656;2022-07-04T02:23:01;15.50;99.90
27544;DHT22;17996;51.056;3.656;2022-07-04T02:25:28;15.50;99.90
27544;DHT22;17996;51.056;3.656;2022-07-04T02:27:54;15.50;99.90
27544;DHT22;17996;51.056;3.656;2022-07-04T02:30:20;15.40;99.90
27544;DHT22;17996;51.056;3.656;2022-07-04T02:32:45;15.60;99.90
27544;DHT22;17996;51.056;3.656;2022-07-04T02:35:11;15.40;99.90
27544;DHT22;17996;51.056;3.656;2022-07-04T02:37:37;15.40;99.90
27544;DHT22;17996;51.056;3.656;2022-07-04T02:40:04;15.30;99.90
27544;DHT22;17996;51.056;3.656;2022-07-04T02:42:31;15.30;99.90
27544;DHT22;17996;51.056;3.656;2022-07-04T02:44:57;15.30;99.90
27544;DHT22;17996;51.056;3.656;2022-07-04T02:47:23;15.30;99.90
27544;DHT22;17996;51.056;3.656;2022-07-04T02:49:49;15.30;99.90
27544;DHT22;17996;51.056;3.656;2022-07-04T02:52:15;15.30;99.90
27544;DHT22;17996;51.056;3.656;2022-07-04T02:54:41;15.20;99.90
27544;DHT22;17996;51.056;3.656;2022-07-04T02:57:07;15.30;99.90
27544;DHT22;17996;51.056;3.656;2022-07-04T02:59:33;15.20;99.90
27544;DHT22;17996;51.056;3.656;2022-07-04T03:01:59;15.40;99.90
27544;DHT22;17996;51.056;3.656;2022-07-04T03:04:24;15.20;99.90
27544;DHT22;17996;51.056;3.656;2022-07-04T03:06:50;15.20;99.90
27544;DHT22;17996;51.056;3.656;2022-07-04T03:09:16;15.40;99.90
27544;DHT22;17996;51.056;3.656;2022-07-04T03:11:42;15.10;99.90
27544;DHT22;17996;51.056;3.656;2022-07-04T03:14:08;15.10;99.90
27544;DHT22;17996;51.056;3.656;2022-07-04T03:16:33;15.10;99.90
27544;DHT22;17996;51.056;3.656;2022-07-04T03:18:59;15.10;99.90
27544;DHT22;17996;51.056;3.656;2022-07-04T03:21:25;15.10;99.90
27544;DHT22;17996;51.056;3.656;2022-07-04T03:23:50;15.10;99.90
27544;DHT22;17996;51.056;3.656;2022-07-04T03:26:26;15.20;99.90
27544;DHT22;17996;51.056;3.656;2022-07-04T03:28:52;15.20;99.90
27544;DHT22;17996;51.056;3.656;2022-07-04T03:31:19;15.10;99.90
27544;DHT22;17996;51.056;3.656;2022-07-04T03:33:44;15.10;99.90
27544;DHT22;17996;51.056;3.656;2022-07-04T03:36:10;15.10;99.90
27544;DHT22;17996;51.056;3.656;2022-07-04T03:38:36;15.10;99.90
27544;DHT22;17996;51.056;3.656;2022-07-04T03:41:02;15.10;99.90
27544;DHT22;17996;51.056;3.656;2022-07-04T03:43:27;15.10;99.90
27544;DHT22;17996;51.056;3.656;2022-07-04T03:45:53;15.10;99.90
27544;DHT22;17996;51.056;3.656;2022-07-04T03:48:19;15.10;99.90
27544;DHT22;17996;51.056;3.656;2022-07-04T03:50:46;15.10;99.90
27544;DHT22;17996;51.056;3.656;2022-07-04T03:53:11;15.10;99.90
27544;DHT22;17996;51.056;3.656;2022-07-04T03:55:38;15.10;99.90
27544;DHT22;17996;51.056;3.656;2022-07-04T03:58:04;15.10;99.90
27544;DHT22;17996;51.056;3.656;2022-07-04T04:00:31;15.10;99.90
27544;DHT22;17996;51.056;3.656;2022-07-04T04:02:57;15.10;99.90
27544;DHT22;17996;51.056;3.656;2022-07-04T04:05:23;15.10;99.90
27544;DHT22;17996;51.056;3.656;2022-07-04T04:08:00;15.00;99.90
27544;DHT22;17996;51.056;3.656;2022-07-04T04:10:27;15.10;99.90
27544;DHT22;17996;51.056;3.656;2022-07-04T04:12:53;15.10;99.90
27544;DHT22;17996;51.056;3.656;2022-07-04T04:15:18;15.20;99.90
27544;DHT22;17996;51.056;3.656;2022-07-04T04:17:44;15.20;99.90
27544;DHT22;17996;51.056;3.656;2022-07-04T04:20:12;15.20;99.90
27544;DHT22;17996;51.056;3.656;2022-07-04T04:22:37;15.20;99.90
27544;DHT22;17996;51.056;3.656;2022-07-04T04:25:04;15.20;99.90
27544;DHT22;17996;51.056;3.656;2022-07-04T04:27:29;15.20;99.90
27544;DHT22;17996;51.056;3.656;2022-07-04T04:29:55;15.30;99.90
27544;DHT22;17996;51.056;3.656;2022-07-04T04:32:21;15.30;99.90
27544;DHT22;17996;51.056;3.656;2022-07-04T04:34:47;15.30;99.90
27544;DHT22;17996;51.056;3.656;2022-07-04T04:37:13;15.30;99.90
27544;DHT22;17996;51.056;3.656;2022-07-04T04:39:39;15.30;99.90
27544;DHT22;17996;51.056;3.656;2022-07-04T04:42:05;15.30;99.90
27544;DHT22;17996;51.056;3.656;2022-07-04T04:44:30;15.30;99.90
27544;DHT22;17996;51.056;3.656;2022-07-04T04:46:56;15.30;99.90
27544;DHT22;17996;51.056;3.656;2022-07-04T04:49:22;15.40;99.90
27544;DHT22;17996;51.056;3.656;2022-07-04T04:51:47;15.40;99.90
27544;DHT22;17996;51.056;3.656;2022-07-04T04:54:13;15.40;99.90
27544;DHT22;17996;51.056;3.656;2022-07-04T04:56:39;15.40;99.90
27544;DHT22;17996;51.056;3.656;2022-07-04T04:59:04;15.40;99.90
27544;DHT22;17996;51.056;3.656;2022-07-04T05:01:30;15.40;99.90
27544;DHT22;17996;51.056;3.656;2022-07-04T05:03:56;15.50;99.90
27544;DHT22;17996;51.056;3.656;2022-07-04T05:06:22;15.50;99.90
27544;DHT22;17996;51.056;3.656;2022-07-04T05:08:48;15.50;99.90
27544;DHT22;17996;51.056;3.656;2022-07-04T05:11:14;15.50;99.90
27544;DHT22;17996;51.056;3.656;2022-07-04T05:13:39;15.60;99.90
27544;DHT22;17996;51.056;3.656;2022-07-04T05:16:05;15.70;99.90
27544;DHT22;17996;51.056;3.656;2022-07-04T05:18:31;15.70;99.90
27544;DHT22;17996;51.056;3.656;2022-07-04T05:20:58;15.70;99.90
27544;DHT22;17996;51.056;3.656;2022-07-04T05:23:24;15.80;99.90
27544;DHT22;17996;51.056;3.656;2022-07-04T05:25:50;15.90;99.90
27544;DHT22;17996;51.056;3.656;2022-07-04T05:28:15;16.00;99.90
27544;DHT22;17996;51.056;3.656;2022-07-04T05:30:41;16.10;99.90
27544;DHT22;17996;51.056;3.656;2022-07-04T05:33:08;16.10;99.90
27544;DHT22;17996;51.056;3.656;2022-07-04T05:35:34;16.20;99.90
27544;DHT22;17996;51.056;3.656;2022-07-04T05:38:00;16.20;99.90
27544;DHT22;17996;51.056;3.656;2022-07-04T05:40:25;16.30;99.90
27544;DHT22;17996;51.056;3.656;2022-07-04T05:42:51;16.30;99.90
27544;DHT22;17996;51.056;3.656;2022-07-04T05:45:17;16.40;99.90
27544;DHT22;17996;51.056;3.656;2022-07-04T05:47:42;16.40;99.90
27544;DHT22;17996;51.056;3.656;2022-07-04T05:50:09;16.40;99.90
27544;DHT22;17996;51.056;3.656;2022-07-04T05:52:37;16.50;99.90
27544;DHT22;17996;51.056;3.656;2022-07-04T05:55:03;16.60;99.90
27544;DHT22;17996;51.056;3.656;2022-07-04T05:57:29;16.60;99.90
27544;DHT22;17996;51.056;3.656;2022-07-04T05:59:54;16.60;99.90
27544;DHT22;17996;51.056;3.656;2022-07-04T06:02:20;16.60;99.90
27544;DHT22;17996;51.056;3.656;2022-07-04T06:04:46;16.60;99.90
27544;DHT22;17996;51.056;3.656;2022-07-04T06:07:11;16.60;99.90
27544;DHT22;17996;51.056;3.656;2022-07-04T06:09:37;16.60;99.90
27544;DHT22;17996;51.056;3.656;2022-07-04T06:12:04;16.60;99.90
27544;DHT22;17996;51.056;3.656;2022-07-04T06:14:30;16.60;99.90
27544;DHT22;17996;51.056;3.656;2022-07-04T06:16:56;16.60;99.90
27544;DHT22;17996;51.056;3.656;2022-07-04T06:19:22;16.60;99.90
27544;DHT22;17996;51.056;3.656;2022-07-04T06:21:49;16.60;99.90
27544;DHT22;17996;51.056;3.656;2022-07-04T06:24:15;16.60;99.90
27544;DHT22;17996;51.056;3.656;2022-07-04T06:26:40;16.70;99.90
27544;DHT22;17996;51.056;3.656;2022-07-04T06:29:06;16.70;99.90
27544;DHT22;17996;51.056;3.656;2022-07-04T06:31:32;16.70;99.90
27544;DHT22;17996;51.056;3.656;2022-07-04T06:33:57;16.70;99.90
27544;DHT22;17996;51.056;3.656;2022-07-04T06:36:42;16.80;99.90
27544;DHT22;17996;51.056;3.656;2022-07-04T06:39:07;16.80;99.90
27544;DHT22;17996;51.056;3.656;2022-07-04T06:41:33;16.90;99.90
27544;DHT22;17996;51.056;3.656;2022-07-04T06:43:59;16.90;99.90
27544;DHT22;17996;51.056;3.656;2022-07-04T06:46:24;16.90;99.90
27544;DHT22;17996;51.056;3.656;2022-07-04T06:48:50;16.90;99.90
27544;DHT22;17996;51.056;3.656;2022-07-04T06:51:16;17.00;99.90
27544;DHT22;17996;51.056;3.656;2022-07-04T06:53:42;17.10;99.90
27544;DHT22;17996;51.056;3.656;2022-07-04T06:56:08;17.10;99.90
27544;DHT22;17996;51.056;3.656;2022-07-04T06:58:34;17.10;99.90
27544;DHT22;17996;51.056;3.656;2022-07-04T07:00:59;17.10;99.90
27544;DHT22;17996;51.056;3.656;2022-07-04T07:03:25;17.20;99.90
27544;DHT22;17996;51.056;3.656;2022-07-04T07:05:52;17.20;99.90
27544;DHT22;17996;51.056;3.656;2022-07-04T07:08:18;17.20;99.90
27544;DHT22;17996;51.056;3.656;2022-07-04T07:10:44;17.20;99.90
27544;DHT22;17996;51.056;3.656;2022-07-04T07:13:09;17.30;99.90
27544;DHT22;17996;51.056;3.656;2022-07-04T07:15:37;17.30;99.90
27544;DHT22;17996;51.056;3.656;2022-07-04T07:18:03;17.30;99.90
27544;DHT22;17996;51.056;3.656;2022-07-04T07:20:29;17.40;99.90
27544;DHT22;17996;51.056;3.656;2022-07-04T07:22:55;17.40;99.90
27544;DHT22;17996;51.056;3.656;2022-07-04T07:25:21;17.40;99.90
27544;DHT22;17996;51.056;3.656;2022-07-04T07:27:46;17.40;99.90
27544;DHT22;17996;51.056;3.656;2022-07-04T07:30:13;17.50;99.90
27544;DHT22;17996;51.056;3.656;2022-07-04T07:32:41;17.50;99.90
27544;DHT22;17996;51.056;3.656;2022-07-04T07:35:09;17.50;99.90
27544;DHT22;17996;51.056;3.656;2022-07-04T07:37:35;17.50;99.90
27544;DHT22;17996;51.056;3.656;2022-07-04T07:40:04;17.50;99.90
27544;DHT22;17996;51.056;3.656;2022-07-04T07:42:30;17.50;99.90
27544;DHT22;17996;51.056;3.656;2022-07-04T07:45:01;17.60;99.90
27544;DHT22;17996;51.056;3.656;2022-07-04T07:47:33;17.70;99.90
27544;DHT22;17996;51.056;3.656;2022-07-04T07:49:58;17.70;99.90
27544;DHT22;17996;51.056;3.656;2022-07-04T07:52:24;17.80;99.90
27544;DHT22;17996;51.056;3.656;2022-07-04T07:54:50;17.80;99.90
27544;DHT22;17996;51.056;3.656;2022-07-04T07:57:15;17.80;99.90
27544;DHT22;17996;51.056;3.656;2022-07-04T07:59:41;17.90;99.90
27544;DHT22;17996;51.056;3.656;2022-07-04T08:02:07;17.80;99.90
27544;DHT22;17996;51.056;3.656;2022-07-04T08:04:32;17.90;99.90
27544;DHT22;17996;51.056;3.656;2022-07-04T08:07:07;17.90;99.90
27544;DHT22;17996;51.056;3.656;2022-07-04T08:09:34;18.00;99.90
27544;DHT22;17996;51.056;3.656;2022-07-04T08:12:07;18.00;99.90
27544;DHT22;17996;51.056;3.656;2022-07-04T08:14:33;18.00;99.90
27544;DHT22;17996;51.056;3.656;2022-07-04T08:17:00;18.00;99.90
27544;DHT22;17996;51.056;3.656;2022-07-04T08:19:26;18.10;99.90
27544;DHT22;17996;51.056;3.656;2022-07-04T08:21:53;18.10;99.90
27544;DHT22;17996;51.056;3.656;2022-07-04T08:24:18;18.10;99.90
27544;DHT22;17996;51.056;3.656;2022-07-04T08:26:44;18.20;99.90
27544;DHT22;17996;51.056;3.656;2022-07-04T08:29:12;18.20;99.90
27544;DHT22;17996;51.056;3.656;2022-07-04T08:31:40;18.30;99.90
27544;DHT22;17996;51.056;3.656;2022-07-04T08:34:06;18.40;99.90
27544;DHT22;17996;51.056;3.656;2022-07-04T08:36:31;18.50;99.90
27544;DHT22;17996;51.056;3.656;2022-07-04T08:38:57;18.50;99.90
27544;DHT22;17996;51.056;3.656;2022-07-04T08:41:23;18.60;99.90
27544;DHT22;17996;51.056;3.656;2022-07-04T08:43:49;18.60;99.90
27544;DHT22;17996;51.056;3.656;2022-07-04T08:46:15;18.70;99.90
27544;DHT22;17996;51.056;3.656;2022-07-04T08:48:51;18.80;99.90
27544;DHT22;17996;51.056;3.656;2022-07-04T08:51:23;18.80;99.90
27544;DHT22;17996;51.056;3.656;2022-07-04T08:53:55;18.90;99.90
27544;DHT22;17996;51.056;3.656;2022-07-04T08:56:22;19.00;99.90
27544;DHT22;17996;51.056;3.656;2022-07-04T08:59:08;19.10;99.90
27544;DHT22;17996;51.056;3.656;2022-07-04T09:01:39;19.10;99.90
27544;DHT22;17996;51.056;3.656;2022-07-04T09:04:06;19.20;99.90
27544;DHT22;17996;51.056;3.656;2022-07-04T09:06:32;19.20;99.90
27544;DHT22;17996;51.056;3.656;2022-07-04T09:08:59;19.20;99.90
27544;DHT22;17996;51.056;3.656;2022-07-04T09:11:24;19.30;99.90
27544;DHT22;17996;51.056;3.656;2022-07-04T09:13:50;19.30;99.90
27544;DHT22;17996;51.056;3.656;2022-07-04T09:16:17;19.40;99.90
27544;DHT22;17996;51.056;3.656;2022-07-04T09:18:43;19.40;99.90
27544;DHT22;17996;51.056;3.656;2022-07-04T09:21:14;19.40;99.90
27544;DHT22;17996;51.056;3.656;2022-07-04T09:23:42;19.60;99.90
27544;DHT22;17996;51.056;3.656;2022-07-04T09:26:21;19.80;99.90
27544;DHT22;17996;51.056;3.656;2022-07-04T09:28:53;20.00;99.90
27544;DHT22;17996;51.056;3.656;2022-07-04T09:31:28;20.10;99.90
27544;DHT22;17996;51.056;3.656;2022-07-04T09:36:23;20.20;99.90
27544;DHT22;17996;51.056;3.656;2022-07-04T09:39:17;20.10;99.90
27544;DHT22;17996;51.056;3.656;2022-07-04T09:41:57;20.00;99.90
27544;DHT22;17996;51.056;3.656;2022-07-04T09:44:45;20.00;99.90
27544;DHT22;17996;51.056;3.656;2022-07-04T09:47:27;20.10;99.90
27544;DHT22;17996;51.056;3.656;2022-07-04T09:49:59;20.10;99.90
27544;DHT22;17996;51.056;3.656;2022-07-04T09:52:25;20.20;99.90
27544;DHT22;17996;51.056;3.656;2022-07-04T09:54:57;20.30;99.90
27544;DHT22;17996;51.056;3.656;2022-07-04T09:57:23;20.60;99.90
27544;DHT22;17996;51.056;3.656;2022-07-04T09:59:49;20.90;99.90
27544;DHT22;17996;51.056;3.656;2022-07-04T10:02:15;21.10;99.90
27544;DHT22;17996;51.056;3.656;2022-07-04T10:04:49;21.30;99.90
27544;DHT22;17996;51.056;3.656;2022-07-04T10:07:37;21.50;99.90
27544;DHT22;17996;51.056;3.656;2022-07-04T10:10:29;21.50;99.90
27544;DHT22;17996;51.056;3.656;2022-07-04T10:12:59;21.60;99.90
27544;DHT22;17996;51.056;3.656;2022-07-04T10:15:35;21.50;99.90
27544;DHT22;17996;51.056;3.656;2022-07-04T10:18:09;21.50;99.90
27544;DHT22;17996;51.056;3.656;2022-07-04T10:20:36;21.50;99.90
27544;DHT22;17996;51.056;3.656;2022-07-04T10:23:03;21.40;99.90
27544;DHT22;17996;51.056;3.656;2022-07-04T10:25:35;21.50;99.90
27544;DHT22;17996;51.056;3.656;2022-07-04T10:28:01;21.50;99.90
27544;DHT22;17996;51.056;3.656;2022-07-04T10:30:30;21.60;99.90
27544;DHT22;17996;51.056;3.656;2022-07-04T10:32:59;21.70;99.90
27544;DHT22;17996;51.056;3.656;2022-07-04T10:35:48;21.60;99.90
27544;DHT22;17996;51.056;3.656;2022-07-04T10:38:14;21.60;99.90
27544;DHT22;17996;51.056;3.656;2022-07-04T10:40:50;21.60;99.90
27544;DHT22;17996;51.056;3.656;2022-07-04T10:51:42;22.20;99.90
27544;DHT22;17996;51.056;3.656;2022-07-04T10:54:27;22.30;99.90
27544;DHT22;17996;51.056;3.656;2022-07-04T10:56:56;22.50;99.90
27544;DHT22;17996;51.056;3.656;2022-07-04T10:59:27;22.50;99.90
27544;DHT22;17996;51.056;3.656;2022-07-04T11:07:17;22.50;99.90
27544;DHT22;17996;51.056;3.656;2022-07-04T11:09:44;22.50;99.90
27544;DHT22;17996;51.056;3.656;2022-07-04T11:12:10;22.40;99.90
27544;DHT22;17996;51.056;3.656;2022-07-04T11:14:50;22.50;99.90
27544;DHT22;17996;51.056;3.656;2022-07-04T11:17:28;22.60;99.90
27544;DHT22;17996;51.056;3.656;2022-07-04T11:20:05;22.70;99.90
27544;DHT22;17996;51.056;3.656;2022-07-04T11:22:34;22.50;99.90
27544;DHT22;17996;51.056;3.656;2022-07-04T11:24:59;22.50;99.90
27544;DHT22;17996;51.056;3.656;2022-07-04T11:27:25;22.50;99.90
27544;DHT22;17996;51.056;3.656;2022-07-04T11:29:53;22.50;99.90
27544;DHT22;17996;51.056;3.656;2022-07-04T11:32:20;22.40;99.90
27544;DHT22;17996;51.056;3.656;2022-07-04T11:34:46;22.40;99.90
27544;DHT22;17996;51.056;3.656;2022-07-04T11:37:13;22.40;99.90
27544;DHT22;17996;51.056;3.656;2022-07-04T11:39:38;22.40;99.90
27544;DHT22;17996;51.056;3.656;2022-07-04T11:42:04;22.40;99.90
27544;DHT22;17996;51.056;3.656;2022-07-04T11:44:49;22.40;99.90
27544;DHT22;17996;51.056;3.656;2022-07-04T11:47:36;22.40;99.90
27544;DHT22;17996;51.056;3.656;2022-07-04T11:50:07;22.50;99.90
27544;DHT22;17996;51.056;3.656;2022-07-04T11:55:07;22.70;99.90
27544;DHT22;17996;51.056;3.656;2022-07-04T11:57:44;22.80;99.90
27544;DHT22;17996;51.056;3.656;2022-07-04T12:00:14;22.90;99.90
27544;DHT22;17996;51.056;3.656;2022-07-04T12:02:42;22.80;99.90
27544;DHT22;17996;51.056;3.656;2022-07-04T12:05:10;22.80;99.90
27544;DHT22;17996;51.056;3.656;2022-07-04T12:07:39;23.00;99.90
27544;DHT22;17996;51.056;3.656;2022-07-04T12:10:18;23.10;99.90
27544;DHT22;17996;51.056;3.656;2022-07-04T12:12:54;23.20;99.90
27544;DHT22;17996;51.056;3.656;2022-07-04T12:15:22;23.40;99.90
27544;DHT22;17996;51.056;3.656;2022-07-04T12:17:56;23.70;99.90
27544;DHT22;17996;51.056;3.656;2022-07-04T12:20:23;23.90;99.90
27544;DHT22;17996;51.056;3.656;2022-07-04T12:22:54;24.00;99.90
27544;DHT22;17996;51.056;3.656;2022-07-04T12:25:30;24.00;99.90
27544;DHT22;17996;51.056;3.656;2022-07-04T12:27:59;24.00;99.90
27544;DHT22;17996;51.056;3.656;2022-07-04T12:30:27;24.20;99.90
27544;DHT22;17996;51.056;3.656;2022-07-04T12:33:00;24.20;99.90
27544;DHT22;17996;51.056;3.656;2022-07-04T12:40:37;24.50;99.90
27544;DHT22;17996;51.056;3.656;2022-07-04T12:43:03;24.20;99.90
27544;DHT22;17996;51.056;3.656;2022-07-04T12:45:43;24.00;99.90
27544;DHT22;17996;51.056;3.656;2022-07-04T12:48:22;24.20;99.90
27544;DHT22;17996;51.056;3.656;2022-07-04T12:50:49;24.20;99.90
27544;DHT22;17996;51.056;3.656;2022-07-04T12:53:16;24.10;99.90
27544;DHT22;17996;51.056;3.656;2022-07-04T12:55:43;24.00;99.90
27544;DHT22;17996;51.056;3.656;2022-07-04T12:58:09;24.00;99.90
27544;DHT22;17996;51.056;3.656;2022-07-04T13:00:36;24.00;99.90
27544;DHT22;17996;51.056;3.656;2022-07-04T13:03:03;24.40;99.90
27544;DHT22;17996;51.056;3.656;2022-07-04T13:05:28;24.70;99.90
27544;DHT22;17996;51.056;3.656;2022-07-04T13:07:55;25.10;99.90
27544;DHT22;17996;51.056;3.656;2022-07-04T13:10:21;25.10;99.90
27544;DHT22;17996;51.056;3.656;2022-07-04T13:12:47;25.10;99.90
27544;DHT22;17996;51.056;3.656;2022-07-04T13:15:13;25.10;99.90
27544;DHT22;17996;51.056;3.656;2022-07-04T13:17:39;24.90;99.90
27544;DHT22;17996;51.056;3.656;2022-07-04T13:20:05;24.70;99.70
27544;DHT22;17996;51.056;3.656;2022-07-04T13:22:31;24.40;99.30
27544;DHT22;17996;51.056;3.656;2022-07-04T13:24:56;24.30;99.60
27544;DHT22;17996;51.056;3.656;2022-07-04T13:27:22;24.00;98.90
27544;DHT22;17996;51.056;3.656;2022-07-04T13:29:49;23.90;99.20
27544;DHT22;17996;51.056;3.656;2022-07-04T13:32:14;24.00;99.90
27544;DHT22;17996;51.056;3.656;2022-07-04T13:34:40;24.20;99.90
27544;DHT22;17996;51.056;3.656;2022-07-04T13:37:06;24.30;99.90
27544;DHT22;17996;51.056;3.656;2022-07-04T13:39:33;24.50;99.90
27544;DHT22;17996;51.056;3.656;2022-07-04T13:41:59;24.30;99.10
27544;DHT22;17996;51.056;3.656;2022-07-04T13:44:25;24.20;99.30
27544;DHT22;17996;51.056;3.656;2022-07-04T13:46:53;24.20;99.90
27544;DHT22;17996;51.056;3.656;2022-07-04T13:49:19;24.40;99.90
27544;DHT22;17996;51.056;3.656;2022-07-04T13:51:45;24.60;99.90
27544;DHT22;17996;51.056;3.656;2022-07-04T13:54:10;24.60;99.70
27544;DHT22;17996;51.056;3.656;2022-07-04T13:56:37;24.70;99.90
27544;DHT22;17996;51.056;3.656;2022-07-04T13:59:03;24.60;99.20
27544;DHT22;17996;51.056;3.656;2022-07-04T14:01:28;24.70;99.90
27544;DHT22;17996;51.056;3.656;2022-07-04T14:03:54;24.80;98.60
27544;DHT22;17996;51.056;3.656;2022-07-04T14:06:21;24.90;98.50
27544;DHT22;17996;51.056;3.656;2022-07-04T14:08:47;25.50;99.00
27544;DHT22;17996;51.056;3.656;2022-07-04T14:11:14;26.00;98.10
27544;DHT22;17996;51.056;3.656;2022-07-04T14:13:40;26.70;99.50
27544;DHT22;17996;51.056;3.656;2022-07-04T14:16:06;27.60;97.90
27544;DHT22;17996;51.056;3.656;2022-07-04T14:18:32;28.30;97.20
27544;DHT22;17996;51.056;3.656;2022-07-04T14:20:58;29.00;93.90
27544;DHT22;17996;51.056;3.656;2022-07-04T14:23:24;29.10;92.50
27544;DHT22;17996;51.056;3.656;2022-07-04T14:26:13;28.80;91.20
27544;DHT22;17996;51.056;3.656;2022-07-04T14:28:40;29.00;92.80
27544;DHT22;17996;51.056;3.656;2022-07-04T14:31:05;29.00;90.40
27544;DHT22;17996;51.056;3.656;2022-07-04T14:33:32;29.00;88.50
27544;DHT22;17996;51.056;3.656;2022-07-04T14:35:59;29.10;88.20
27544;DHT22;17996;51.056;3.656;2022-07-04T14:38:25;29.00;88.80
27544;DHT22;17996;51.056;3.656;2022-07-04T14:40:51;29.00;86.90
27544;DHT22;17996;51.056;3.656;2022-07-04T14:43:17;28.70;86.00
27544;DHT22;17996;51.056;3.656;2022-07-04T14:45:43;29.10;89.70
27544;DHT22;17996;51.056;3.656;2022-07-04T14:48:10;28.90;89.50
27544;DHT22;17996;51.056;3.656;2022-07-04T14:50:35;28.80;90.10
27544;DHT22;17996;51.056;3.656;2022-07-04T14:53:01;28.50;90.70
27544;DHT22;17996;51.056;3.656;2022-07-04T14:55:27;27.80;91.80
27544;DHT22;17996;51.056;3.656;2022-07-04T14:57:53;28.00;92.80
27544;DHT22;17996;51.056;3.656;2022-07-04T15:00:18;28.80;92.90
27544;DHT22;17996;51.056;3.656;2022-07-04T15:02:44;29.10;90.50
27544;DHT22;17996;51.056;3.656;2022-07-04T15:05:12;29.00;90.20
27544;DHT22;17996;51.056;3.656;2022-07-04T15:07:39;29.30;90.70
27544;DHT22;17996;51.056;3.656;2022-07-04T15:10:06;29.20;90.00
27544;DHT22;17996;51.056;3.656;2022-07-04T15:12:35;29.50;90.00
27544;DHT22;17996;51.056;3.656;2022-07-04T15:15:00;29.30;89.50
27544;DHT22;17996;51.056;3.656;2022-07-04T15:17:28;29.20;88.30
27544;DHT22;17996;51.056;3.656;2022-07-04T15:19:54;29.60;87.30
27544;DHT22;17996;51.056;3.656;2022-07-04T15:22:41;30.00;87.10
27544;DHT22;17996;51.056;3.656;2022-07-04T15:25:25;30.10;86.40
27544;DHT22;17996;51.056;3.656;2022-07-04T15:27:51;30.50;85.90
27544;DHT22;17996;51.056;3.656;2022-07-04T15:30:17;30.50;85.10
27544;DHT22;17996;51.056;3.656;2022-07-04T15:32:43;30.30;85.00
27544;DHT22;17996;51.056;3.656;2022-07-04T15:35:14;30.10;85.30
27544;DHT22;17996;51.056;3.656;2022-07-04T15:37:41;29.80;84.40
27544;DHT22;17996;51.056;3.656;2022-07-04T15:40:07;29.90;86.60
27544;DHT22;17996;51.056;3.656;2022-07-04T15:42:34;30.00;83.90
27544;DHT22;17996;51.056;3.656;2022-07-04T15:45:00;30.20;84.20
27544;DHT22;17996;51.056;3.656;2022-07-04T15:47:26;29.40;83.80
27544;DHT22;17996;51.056;3.656;2022-07-04T15:49:52;29.10;85.90
27544;DHT22;17996;51.056;3.656;2022-07-04T15:52:19;29.50;86.10
27544;DHT22;17996;51.056;3.656;2022-07-04T15:54:45;30.30;88.10
27544;DHT22;17996;51.056;3.656;2022-07-04T15:57:11;31.20;86.00